Time;durP1;ratioP1;P1;durP2;ratioP2;P2;SDS_P1;SDS_P2;PMS_P1;PMS_P2;Temp;Humidity;BMP_temperature;BMP_pressure;BME280_temperature;BME280_humidity;BME280_pressure;Samples;Min_cycle;Max_cycle;Signal;HPM_P1;HPM_P2
2021/07/13 00:00:01;;;;;;;6.00;3.63;;;18.90;52.50;;;;;;5112987;27;20052;-74
2021/07/13 00:02:56;;;;;;;5.63;3.15;;;18.80;52.50;;;;;;5112968;27;20118;-73
2021/07/13 00:05:44;;;;;;;6.47;3.30;;;18.90;51.10;;;;;;5112047;27;20048;-75
2021/07/13 00:08:51;;;;;;;4.40;3.00;;;18.90;50.30;;;;;;5111404;27;20047;-73
2021/07/13 00:11:39;;;;;;;6.20;2.97;;;18.90;49.10;;;;;;5119252;27;20063;-74
2021/07/13 00:14:29;;;;;;;3.45;2.50;;;18.80;47.50;;;;;;5110009;27;20036;-73
2021/07/13 00:17:18;;;;;;;3.78;2.40;;;18.80;46.90;;;;;;5113256;27;20054;-74
2021/07/13 00:20:08;;;;;;;5.47;2.70;;;18.70;47.50;;;;;;5115044;27;20055;-74
2021/07/13 00:22:57;;;;;;;4.32;2.75;;;18.80;46.90;;;;;;5115038;27;20042;-73
2021/07/13 00:25:45;;;;;;;4.00;2.63;;;18.80;47.90;;;;;;5111970;27;20070;-74
2021/07/13 00:28:36;;;;;;;4.88;2.92;;;18.70;49.20;;;;;;5114001;27;20401;-75
2021/07/13 00:31:26;;;;;;;4.07;2.80;;;18.70;49.50;;;;;;5104946;27;20410;-74
2021/07/13 00:34:14;;;;;;;4.10;2.65;;;18.70;50.90;;;;;;5112219;27;20130;-74
2021/07/13 00:37:03;;;;;;;7.47;3.03;;;18.60;48.90;;;;;;5111998;27;20051;-73
2021/07/13 00:39:51;;;;;;;4.63;2.35;;;18.70;50.60;;;;;;5113173;27;20097;-73
2021/07/13 00:42:43;;;;;;;4.88;2.88;;;18.60;51.70;;;;;;5111350;27;20035;-73
2021/07/13 00:45:31;;;;;;;3.45;2.53;;;18.50;51.90;;;;;;5112380;27;20046;-75
2021/07/13 00:48:22;;;;;;;5.80;3.20;;;18.40;54.00;;;;;;5112113;27;20108;-74
2021/07/13 00:51:12;;;;;;;6.18;3.45;;;18.30;55.80;;;;;;5095135;27;20039;-73
2021/07/13 00:54:01;;;;;;;10.88;3.75;;;18.50;56.20;;;;;;5112549;27;20047;-73
2021/07/13 00:56:52;;;;;;;5.18;4.07;;;18.40;57.00;;;;;;5111628;28;20431;-74
2021/07/13 00:59:42;;;;;;;7.07;4.07;;;18.40;57.80;;;;;;5113055;27;20498;-74
2021/07/13 01:02:31;;;;;;;6.72;4.35;;;18.50;58.40;;;;;;5111184;27;20046;-74
2021/07/13 01:05:24;;;;;;;6.20;4.70;;;18.60;59.10;;;;;;5116349;27;20042;-74
2021/07/13 01:08:29;;;;;;;6.22;4.65;;;18.50;60.40;;;;;;5109862;27;20055;-75
2021/07/13 01:11:23;;;;;;;6.53;5.00;;;18.50;61.10;;;;;;5105695;28;20035;-73
2021/07/13 01:14:22;;;;;;;8.60;5.40;;;18.40;63.00;;;;;;5111768;27;20768;-73
2021/07/13 01:17:14;;;;;;;8.57;5.30;;;18.30;64.20;;;;;;5112157;27;20524;-72
2021/07/13 01:20:33;;;;;;;6.45;4.90;;;18.20;65.80;;;;;;5110908;28;20051;-72
2021/07/13 01:23:26;;;;;;;6.82;4.88;;;18.10;66.50;;;;;;5109737;28;20490;-72
2021/07/13 01:26:22;;;;;;;5.75;5.00;;;18.10;67.90;;;;;;5108047;27;20161;-71
2021/07/13 01:29:15;;;;;;;8.15;5.50;;;18.00;68.40;;;;;;5109299;27;20151;-72
2021/07/13 01:32:05;;;;;;;9.23;6.10;;;18.00;69.20;;;;;;5111939;27;20042;-73
2021/07/13 01:35:01;;;;;;;7.75;5.55;;;18.00;70.00;;;;;;5111481;27;20051;-72
2021/07/13 01:37:56;;;;;;;15.02;6.80;;;18.00;70.40;;;;;;5112859;27;20052;-73
2021/07/13 01:40:48;;;;;;;9.32;6.35;;;18.10;71.00;;;;;;5119149;27;22168;-72
2021/07/13 01:43:38;;;;;;;10.57;6.93;;;18.00;71.30;;;;;;5116470;27;20044;-72
2021/07/13 01:46:29;;;;;;;7.63;5.80;;;18.00;71.50;;;;;;5112549;27;20510;-72
2021/07/13 01:49:23;;;;;;;7.13;5.95;;;18.00;71.80;;;;;;5111973;27;20490;-73
2021/07/13 01:52:18;;;;;;;8.48;5.70;;;17.90;71.80;;;;;;5115412;27;20039;-73
2021/07/13 01:55:08;;;;;;;6.10;5.28;;;17.90;72.20;;;;;;5116144;27;20050;-72
2021/07/13 01:57:57;;;;;;;8.40;5.40;;;18.00;72.50;;;;;;5114522;27;20125;-72
2021/07/13 02:00:49;;;;;;;6.53;5.00;;;18.00;72.80;;;;;;5110424;27;20047;-73
2021/07/13 02:03:43;;;;;;;5.30;4.75;;;18.00;72.80;;;;;;5110180;27;20047;-73
2021/07/13 02:06:36;;;;;;;10.93;5.13;;;18.00;72.50;;;;;;5111487;27;20086;-74
2021/07/13 02:09:25;;;;;;;6.38;4.15;;;18.00;72.60;;;;;;5111313;27;20105;-73
2021/07/13 02:12:13;;;;;;;6.25;5.00;;;17.90;72.20;;;;;;5122600;27;20552;-73
2021/07/13 02:15:02;;;;;;;6.25;5.13;;;18.00;72.60;;;;;;5109297;27;20056;-73
2021/07/13 02:17:54;;;;;;;6.97;5.32;;;18.00;73.00;;;;;;5109478;27;20065;-73
2021/07/13 02:20:44;;;;;;;7.40;5.25;;;18.00;72.80;;;;;;5110366;27;20122;-74
2021/07/13 02:23:33;;;;;;;6.65;5.45;;;18.00;72.90;;;;;;5118275;27;20046;-73
2021/07/13 02:26:29;;;;;;;5.30;4.47;;;18.10;73.40;;;;;;5125650;27;21164;-73
2021/07/13 02:29:23;;;;;;;6.40;4.00;;;17.90;72.40;;;;;;5109488;27;20525;-73
2021/07/13 02:32:19;;;;;;;6.07;3.95;;;17.80;72.70;;;;;;5111562;27;20042;-74
2021/07/13 02:35:11;;;;;;;7.22;4.30;;;17.80;72.80;;;;;;5113142;27;20115;-73
2021/07/13 02:38:03;;;;;;;4.68;3.65;;;17.90;73.10;;;;;;5112093;27;20036;-72
2021/07/13 02:40:53;;;;;;;5.95;3.40;;;17.80;73.00;;;;;;5109815;27;20127;-73
2021/07/13 02:43:41;;;;;;;7.88;3.05;;;17.90;73.10;;;;;;5113040;27;20043;-74
2021/07/13 02:46:31;;;;;;;7.30;3.60;;;17.80;72.70;;;;;;5113818;27;20054;-73
2021/07/13 02:49:23;;;;;;;6.75;3.60;;;17.90;73.10;;;;;;5110157;27;20050;-73
2021/07/13 02:52:12;;;;;;;5.07;2.90;;;17.90;72.00;;;;;;5108560;27;20042;-73
2021/07/13 02:55:07;;;;;;;5.60;3.03;;;17.90;72.00;;;;;;5108864;27;20040;-74
2021/07/13 02:57:57;;;;;;;4.80;2.90;;;17.90;72.20;;;;;;5108278;27;20642;-73
2021/07/13 03:00:45;;;;;;;3.65;2.90;;;17.80;70.90;;;;;;5112090;27;20130;-74
2021/07/13 03:03:35;;;;;;;5.00;3.80;;;17.80;71.40;;;;;;5115982;27;20051;-73
2021/07/13 03:06:24;;;;;;;5.28;4.07;;;17.80;71.50;;;;;;5113053;27;20057;-73
2021/07/13 03:09:14;;;;;;;6.63;4.22;;;17.70;71.70;;;;;;5107293;27;20051;-73
2021/07/13 03:12:07;;;;;;;7.28;4.75;;;17.60;72.90;;;;;;5109734;27;20049;-74
2021/07/13 03:14:56;;;;;;;5.72;4.55;;;17.70;73.00;;;;;;5115743;27;20050;-74
2021/07/13 03:17:45;;;;;;;5.10;4.32;;;17.60;72.90;;;;;;5118448;27;20065;-73
2021/07/13 03:20:34;;;;;;;7.57;5.03;;;17.70;73.70;;;;;;5112872;27;20051;-74
2021/07/13 03:23:23;;;;;;;6.60;4.68;;;17.70;73.00;;;;;;5113896;27;20051;-74
2021/07/13 03:26:12;;;;;;;7.03;4.72;;;17.70;73.00;;;;;;5111716;27;20043;-74
2021/07/13 03:29:03;;;;;;;5.55;4.95;;;17.60;73.00;;;;;;5110292;27;20042;-73
2021/07/13 03:31:52;;;;;;;10.50;5.68;;;17.60;73.00;;;;;;5112423;27;20048;-74
2021/07/13 03:34:42;;;;;;;7.78;6.13;;;17.60;73.00;;;;;;5106584;27;20047;-74
2021/07/13 03:37:31;;;;;;;9.75;7.28;;;17.60;73.30;;;;;;5107768;27;20043;-74
2021/07/13 03:40:21;;;;;;;11.02;8.40;;;17.70;73.70;;;;;;5109722;27;20082;-74
2021/07/13 03:43:10;;;;;;;12.90;10.43;;;17.70;73.60;;;;;;5111686;27;20039;-73
2021/07/13 03:45:59;;;;;;;13.57;10.77;;;17.70;73.80;;;;;;5110623;27;20046;-74
2021/07/13 03:48:49;;;;;;;13.07;10.23;;;17.60;73.70;;;;;;5118668;27;20052;-74
2021/07/13 03:51:40;;;;;;;14.90;11.18;;;17.60;74.00;;;;;;5106884;27;20065;-75
2021/07/13 03:54:29;;;;;;;13.02;10.27;;;17.60;73.90;;;;;;5112958;27;20138;-74
2021/07/13 03:57:17;;;;;;;13.75;10.23;;;17.60;74.10;;;;;;5112871;27;20047;-74
2021/07/13 04:00:10;;;;;;;14.18;10.50;;;17.60;74.20;;;;;;5111005;27;20406;-74
2021/07/13 04:03:01;;;;;;;12.37;8.67;;;17.60;74.50;;;;;;5114753;27;20109;-75
2021/07/13 04:05:50;;;;;;;11.32;8.82;;;17.60;74.60;;;;;;5111916;27;20794;-76
2021/07/13 04:08:38;;;;;;;10.48;7.97;;;17.60;74.60;;;;;;5108066;27;20582;-75
2021/07/13 04:11:27;;;;;;;16.13;8.38;;;17.60;74.80;;;;;;5105563;27;20062;-76
2021/07/13 04:14:15;;;;;;;11.95;9.10;;;17.60;74.80;;;;;;5109395;27;20047;-75
2021/07/13 04:17:04;;;;;;;13.88;9.23;;;17.50;74.90;;;;;;5115143;27;20051;-76
2021/07/13 04:19:54;;;;;;;12.75;8.40;;;17.50;74.70;;;;;;5108106;27;20048;-76
2021/07/13 04:22:44;;;;;;;13.75;8.70;;;17.60;74.80;;;;;;5107843;27;20127;-76
2021/07/13 04:25:33;;;;;;;9.85;7.45;;;17.60;75.10;;;;;;5112657;27;20051;-77
2021/07/13 04:28:22;;;;;;;10.18;7.43;;;17.60;75.20;;;;;;5104881;28;20051;-77
2021/07/13 04:31:10;;;;;;;10.25;5.43;;;17.50;75.10;;;;;;5105870;27;20050;-76
2021/07/13 04:33:58;;;;;;;6.25;4.45;;;17.50;75.20;;;;;;5106041;28;20085;-76
2021/07/13 04:36:48;;;;;;;8.43;5.20;;;17.50;74.90;;;;;;5109349;27;20502;-76
2021/07/13 04:39:37;;;;;;;6.28;4.65;;;17.50;74.60;;;;;;5107660;28;20405;-75
2021/07/13 04:42:25;;;;;;;7.15;3.80;;;17.60;74.90;;;;;;5100381;28;20054;-76
2021/07/13 04:45:14;;;;;;;6.65;4.53;;;17.60;74.80;;;;;;5109438;28;20046;-76
2021/07/13 04:48:02;;;;;;;5.15;3.70;;;17.70;75.10;;;;;;5110480;28;20121;-76
2021/07/13 04:50:50;;;;;;;4.82;3.53;;;17.60;74.60;;;;;;5091144;28;21427;-76
2021/07/13 04:53:40;;;;;;;5.85;4.03;;;17.60;73.60;;;;;;5105152;28;20047;-76
2021/07/13 04:56:29;;;;;;;4.70;3.75;;;17.70;74.10;;;;;;5107734;28;20123;-76
2021/07/13 04:59:17;;;;;;;4.95;3.90;;;17.80;73.80;;;;;;5105238;28;20060;-76
2021/07/13 05:02:06;;;;;;;5.80;4.07;;;17.70;71.50;;;;;;5098926;28;20126;-74
2021/07/13 05:04:55;;;;;;;6.45;4.43;;;18.10;72.50;;;;;;5107804;28;20059;-75
2021/07/13 05:07:45;;;;;;;6.35;4.13;;;18.20;68.20;;;;;;5113719;27;20055;-74
2021/07/13 05:10:35;;;;;;;4.47;3.58;;;18.00;69.60;;;;;;5110125;27;20142;-75
2021/07/13 05:13:23;;;;;;;9.57;5.60;;;18.00;70.40;;;;;;5111118;27;20067;-75
2021/07/13 05:16:11;;;;;;;7.00;4.40;;;18.20;71.30;;;;;;5110826;27;20043;-74
2021/07/13 05:19:01;;;;;;;5.05;3.92;;;18.10;69.40;;;;;;5120190;27;20038;-74
2021/07/13 05:21:55;;;;;;;7.43;4.97;;;18.00;69.20;;;;;;5115324;27;20043;-74
2021/07/13 05:24:43;;;;;;;5.97;4.18;;;18.10;69.30;;;;;;5120108;27;20525;-74
2021/07/13 05:27:36;;;;;;;6.13;4.85;;;18.00;67.80;;;;;;5109618;27;20047;-72
2021/07/13 05:30:27;;;;;;;6.78;4.13;;;18.20;69.40;;;;;;5118023;27;20612;-73
2021/07/13 05:33:16;;;;;;;8.25;4.10;;;18.30;68.10;;;;;;5119252;27;20120;-73
2021/07/13 05:36:05;;;;;;;6.25;4.50;;;18.40;67.50;;;;;;5110174;27;20503;-74
2021/07/13 05:38:54;;;;;;;7.68;4.30;;;18.40;67.80;;;;;;5109911;27;20052;-75
2021/07/13 05:41:42;;;;;;;10.02;4.20;;;18.40;68.00;;;;;;5110623;27;20055;-73
2021/07/13 05:44:32;;;;;;;7.32;4.35;;;18.50;67.90;;;;;;5121287;27;20047;-73
2021/07/13 05:47:20;;;;;;;5.72;4.03;;;18.50;64.80;;;;;;5116064;27;20043;-73
2021/07/13 05:50:10;;;;;;;7.20;4.30;;;18.60;65.50;;;;;;5112438;27;20127;-73
2021/07/13 05:53:01;;;;;;;5.45;3.50;;;18.70;67.30;;;;;;5120537;27;20063;-73
2021/07/13 05:55:50;;;;;;;5.20;4.00;;;18.40;62.20;;;;;;5123252;27;20050;-73
2021/07/13 05:58:39;;;;;;;5.68;3.45;;;18.40;65.30;;;;;;5120711;27;20047;-72
2021/07/13 06:01:28;;;;;;;8.32;3.50;;;18.30;65.20;;;;;;5115065;27;20122;-73
2021/07/13 06:04:17;;;;;;;4.85;3.60;;;18.30;66.60;;;;;;5113564;27;20479;-73
2021/07/13 06:07:05;;;;;;;6.40;4.45;;;18.40;67.20;;;;;;5117672;27;20051;-73
2021/07/13 06:09:54;;;;;;;4.90;3.78;;;18.30;67.10;;;;;;5111255;27;20059;-73
2021/07/13 06:12:46;;;;;;;9.30;4.97;;;18.40;68.00;;;;;;5110792;27;20055;-73
2021/07/13 06:15:34;;;;;;;9.57;4.25;;;18.40;68.70;;;;;;5112642;27;20047;-74
2021/07/13 06:18:24;;;;;;;6.30;4.20;;;18.60;69.10;;;;;;5112239;27;20040;-73
2021/07/13 06:21:12;;;;;;;7.43;3.53;;;18.60;66.50;;;;;;5093249;27;20122;-73
2021/07/13 06:24:01;;;;;;;6.68;4.40;;;18.60;65.50;;;;;;5116562;27;20043;-74
2021/07/13 06:26:49;;;;;;;5.88;4.03;;;18.70;65.70;;;;;;5100969;27;20054;-73
2021/07/13 06:29:38;;;;;;;6.70;4.60;;;18.80;65.70;;;;;;5108760;27;20437;-72
2021/07/13 06:32:26;;;;;;;13.02;5.38;;;18.80;65.70;;;;;;5112002;27;20115;-73
2021/07/13 06:35:16;;;;;;;6.38;4.72;;;18.70;65.60;;;;;;5117640;27;20054;-72
2021/07/13 06:38:05;;;;;;;10.10;4.32;;;18.50;65.40;;;;;;5117744;27;20043;-73
2021/07/13 06:40:53;;;;;;;8.52;5.50;;;18.60;67.20;;;;;;5111689;27;20058;-72
2021/07/13 06:43:42;;;;;;;9.00;5.45;;;18.50;66.80;;;;;;5117238;27;20043;-71
2021/07/13 06:46:31;;;;;;;7.18;5.82;;;18.60;67.80;;;;;;5118945;27;20043;-72
2021/07/13 06:49:20;;;;;;;6.70;4.15;;;18.60;69.70;;;;;;5113643;27;20147;-72
2021/07/13 06:52:10;;;;;;;7.63;3.83;;;18.30;68.10;;;;;;5114546;27;20046;-72
2021/07/13 06:55:01;;;;;;;8.00;4.22;;;18.30;68.60;;;;;;5114665;27;20469;-72
2021/07/13 06:57:50;;;;;;;7.15;4.22;;;18.40;69.50;;;;;;5113565;27;20054;-72
2021/07/13 07:00:38;;;;;;;7.07;5.63;;;18.30;69.60;;;;;;5114671;27;20055;-73
2021/07/13 07:03:27;;;;;;;5.70;4.82;;;18.20;68.60;;;;;;5117045;27;20761;-73
2021/07/13 07:06:15;;;;;;;10.15;4.70;;;18.50;70.30;;;;;;5120709;27;20038;-74
2021/07/13 07:09:05;;;;;;;6.00;4.60;;;18.50;70.10;;;;;;5107962;27;20487;-73
2021/07/13 07:11:53;;;;;;;6.85;4.07;;;18.50;69.60;;;;;;5111034;27;20043;-74
2021/07/13 07:14:42;;;;;;;7.13;4.78;;;18.50;67.90;;;;;;5119510;27;20061;-73
2021/07/13 07:17:31;;;;;;;5.85;4.25;;;18.50;68.20;;;;;;5119722;27;20421;-72
2021/07/13 07:20:22;;;;;;;9.73;4.13;;;18.60;69.30;;;;;;5104911;27;20400;-74
2021/07/13 07:23:11;;;;;;;9.52;4.20;;;18.60;68.60;;;;;;5115469;27;20500;-73
2021/07/13 07:26:00;;;;;;;6.90;3.75;;;18.50;67.20;;;;;;5110576;27;20554;-72
2021/07/13 07:28:49;;;;;;;7.85;3.17;;;18.50;68.20;;;;;;5105448;27;20054;-73
2021/07/13 07:31:37;;;;;;;4.95;3.10;;;18.50;68.70;;;;;;5112290;27;20051;-73
2021/07/13 07:34:26;;;;;;;5.55;3.08;;;18.40;68.00;;;;;;5113979;27;20146;-73
2021/07/13 07:37:15;;;;;;;4.35;3.15;;;18.40;67.90;;;;;;5114517;27;20039;-72
2021/07/13 07:40:04;;;;;;;4.63;3.35;;;18.40;69.10;;;;;;5112813;27;20054;-73
2021/07/13 07:42:56;;;;;;;5.07;3.17;;;18.40;68.40;;;;;;5115639;27;20391;-73
2021/07/13 07:45:44;;;;;;;5.75;3.50;;;18.30;68.60;;;;;;5113090;27;20421;-73
2021/07/13 07:48:32;;;;;;;5.80;4.57;;;18.30;69.10;;;;;;5111444;27;20055;-73
2021/07/13 07:51:21;;;;;;;9.63;4.20;;;18.40;69.90;;;;;;5113424;27;20122;-72
2021/07/13 07:54:11;;;;;;;5.95;4.35;;;18.20;69.70;;;;;;5116581;27;20054;-72
2021/07/13 07:56:59;;;;;;;8.85;4.03;;;18.20;70.80;;;;;;5121081;27;20405;-72
2021/07/13 07:59:49;;;;;;;6.65;4.47;;;18.20;71.00;;;;;;5108227;27;20063;-73
2021/07/13 08:02:38;;;;;;;9.07;5.20;;;18.20;70.80;;;;;;5109067;27;20516;-72
2021/07/13 08:05:26;;;;;;;8.55;5.82;;;18.30;71.80;;;;;;5116980;27;20651;-73
2021/07/13 08:08:15;;;;;;;10.40;5.45;;;18.30;72.20;;;;;;5112868;27;20480;-73
2021/07/13 08:11:05;;;;;;;9.02;5.70;;;18.10;70.90;;;;;;5107392;27;20055;-73
2021/07/13 08:13:53;;;;;;;10.15;5.88;;;18.10;72.30;;;;;;5109028;27;21345;-73
2021/07/13 08:16:43;;;;;;;13.32;6.50;;;18.10;73.30;;;;;;5118738;27;20126;-73
2021/07/13 08:19:38;;;;;;;8.45;6.28;;;18.20;73.60;;;;;;5112468;27;20055;-73
2021/07/13 08:22:26;;;;;;;9.07;7.07;;;18.10;73.40;;;;;;5112654;27;20107;-72
2021/07/13 08:25:15;;;;;;;13.38;7.25;;;18.20;73.70;;;;;;5113749;27;20057;-73
2021/07/13 08:28:04;;;;;;;8.80;6.93;;;18.20;73.80;;;;;;5113244;27;20132;-73
2021/07/13 08:30:52;;;;;;;12.23;7.82;;;18.40;73.90;;;;;;5092912;28;20058;-74
2021/07/13 08:33:42;;;;;;;11.02;8.30;;;18.40;73.00;;;;;;5113576;27;20050;-74
2021/07/13 08:36:31;;;;;;;9.27;7.35;;;18.30;73.70;;;;;;5104682;27;20040;-73
2021/07/13 08:39:19;;;;;;;10.23;8.23;;;18.30;73.60;;;;;;5111995;27;20059;-73
2021/07/13 08:42:09;;;;;;;14.00;8.73;;;18.40;73.80;;;;;;5106352;28;20051;-74
2021/07/13 08:44:58;;;;;;;11.18;9.35;;;18.50;74.90;;;;;;5110372;27;20061;-73
2021/07/13 08:47:49;;;;;;;11.88;6.72;;;18.40;74.30;;;;;;5109420;27;20051;-73
2021/07/13 08:50:40;;;;;;;7.47;5.35;;;18.30;72.80;;;;;;5110480;27;20399;-73
2021/07/13 08:53:30;;;;;;;6.38;3.88;;;18.30;71.50;;;;;;5107420;27;20048;-73
2021/07/13 08:56:18;;;;;;;6.15;3.97;;;18.00;68.50;;;;;;5113810;28;20056;-73
2021/07/13 08:59:07;;;;;;;6.90;2.70;;;18.00;69.70;;;;;;5120535;27;20051;-73
2021/07/13 09:01:56;;;;;;;2.08;1.50;;;17.90;69.90;;;;;;5109602;27;20047;-74
2021/07/13 09:04:45;;;;;;;3.00;1.30;;;17.80;68.00;;;;;;5112499;27;20051;-73
2021/07/13 09:07:38;;;;;;;3.00;1.00;;;17.60;67.60;;;;;;5104953;28;20530;-74
2021/07/13 09:10:26;;;;;;;2.05;0.80;;;17.50;68.30;;;;;;5112817;27;20044;-75
2021/07/13 09:13:24;;;;;;;1.45;0.60;;;17.40;66.70;;;;;;5115617;27;20137;-73
2021/07/13 09:16:15;;;;;;;1.05;0.50;;;17.20;64.60;;;;;;5109935;27;20122;-72
2021/07/13 09:19:04;;;;;;;1.58;0.20;;;17.10;65.80;;;;;;5093267;27;20457;-72
2021/07/13 09:21:55;;;;;;;3.80;0.57;;;17.00;65.20;;;;;;5108127;27;20055;-73
2021/07/13 09:24:45;;;;;;;1.17;0.52;;;17.10;67.00;;;;;;5110937;28;20299;-73
2021/07/13 09:27:33;;;;;;;0.55;0.20;;;16.80;64.60;;;;;;5104724;28;20044;-73
2021/07/13 09:30:30;;;;;;;1.02;0.30;;;16.80;67.90;;;;;;5103179;28;20046;-73
2021/07/13 09:33:21;;;;;;;0.52;0.28;;;16.60;65.90;;;;;;5106665;28;20051;-73
2021/07/13 09:36:12;;;;;;;0.70;0.40;;;16.50;64.00;;;;;;5109571;28;20046;-73
2021/07/13 09:39:00;;;;;;;1.10;0.30;;;16.30;62.00;;;;;;5107282;28;20031;-74
2021/07/13 09:41:53;;;;;;;1.00;0.30;;;16.30;63.70;;;;;;5106144;28;20130;-72
2021/07/13 09:44:43;;;;;;;0.57;0.30;;;16.20;65.60;;;;;;5103629;28;20060;-72
2021/07/13 09:47:31;;;;;;;0.93;0.45;;;15.90;62.90;;;;;;5109091;28;20507;-74
2021/07/13 09:50:39;;;;;;;1.63;0.40;;;15.90;65.10;;;;;;5106363;28;20046;-74
2021/07/13 09:53:31;;;;;;;2.58;0.57;;;16.00;64.30;;;;;;5104603;28;20187;-74
2021/07/13 09:56:20;;;;;;;1.67;0.70;;;15.90;62.50;;;;;;5109326;27;20416;-74
2021/07/13 09:59:09;;;;;;;0.95;0.50;;;16.00;64.80;;;;;;5113479;27;20037;-73
2021/07/13 10:01:58;;;;;;;0.73;0.50;;;15.90;64.00;;;;;;5110559;27;20062;-73
2021/07/13 10:04:47;;;;;;;6.43;0.70;;;15.80;64.20;;;;;;5115578;27;20051;-74
2021/07/13 10:07:38;;;;;;;1.23;0.40;;;15.90;66.40;;;;;;5106854;27;20422;-74
2021/07/13 10:10:26;;;;;;;0.50;0.30;;;15.90;66.10;;;;;;5110340;27;20095;-73
2021/07/13 10:13:20;;;;;;;1.67;0.45;;;15.90;66.10;;;;;;5111914;27;20101;-74
2021/07/13 10:16:10;;;;;;;0.63;0.30;;;15.90;66.00;;;;;;5112763;27;20044;-74
2021/07/13 10:19:00;;;;;;;1.75;0.30;;;16.00;67.20;;;;;;5110445;27;20043;-73
2021/07/13 10:21:49;;;;;;;0.82;0.47;;;15.90;65.00;;;;;;5109574;27;20054;-73
2021/07/13 10:24:38;;;;;;;2.08;0.52;;;16.10;66.70;;;;;;5109162;27;20055;-73
2021/07/13 10:27:29;;;;;;;3.30;0.95;;;16.00;65.80;;;;;;5110641;27;20044;-74
2021/07/13 10:30:39;;;;;;;1.88;0.40;;;16.20;69.30;;;;;;5111869;27;20047;-72
2021/07/13 10:33:32;;;;;;;2.25;0.30;;;16.00;67.10;;;;;;5111873;27;20076;-73
2021/07/13 10:36:29;;;;;;;3.10;0.38;;;15.90;67.20;;;;;;5110610;27;20046;-73
2021/07/13 10:39:28;;;;;;;1.45;0.43;;;16.00;64.90;;;;;;5112868;27;20135;-73
2021/07/13 10:42:45;;;;;;;1.27;0.60;;;16.10;63.80;;;;;;5119100;27;20047;-74
2021/07/13 10:45:36;;;;;;;1.75;0.40;;;16.20;61.70;;;;;;5110356;27;20410;-73
2021/07/13 10:48:24;;;;;;;0.80;0.50;;;16.30;62.10;;;;;;5110107;27;20042;-74
2021/07/13 10:51:14;;;;;;;0.98;0.40;;;16.30;60.20;;;;;;5106138;27;20059;-73
2021/07/13 10:54:06;;;;;;;1.38;0.25;;;16.70;62.90;;;;;;5106222;28;20604;-74
2021/07/13 10:57:24;;;;;;;1.42;0.40;;;16.60;59.10;;;;;;5112679;27;20051;-75
2021/07/13 11:00:13;;;;;;;2.47;0.50;;;16.70;59.50;;;;;;5108935;27;20047;-74
2021/07/13 11:03:01;;;;;;;3.42;0.40;;;16.70;59.10;;;;;;5109588;27;20122;-74
2021/07/13 11:05:51;;;;;;;1.05;0.40;;;16.60;57.00;;;;;;5115841;27;20066;-75
2021/07/13 11:08:53;;;;;;;2.20;0.55;;;16.60;59.90;;;;;;5115354;27;20052;-75
2021/07/13 11:11:41;;;;;;;0.95;0.22;;;16.60;59.60;;;;;;5104843;27;20054;-74
2021/07/13 11:14:30;;;;;;;2.92;0.70;;;16.60;62.30;;;;;;5107383;27;20549;-74
2021/07/13 11:17:23;;;;;;;4.75;0.55;;;16.60;61.80;;;;;;5115429;27;20168;-75
2021/07/13 11:20:14;;;;;;;1.77;0.60;;;16.40;60.20;;;;;;5116013;27;20410;-73
2021/07/13 11:23:02;;;;;;;0.85;0.60;;;16.60;63.40;;;;;;5109190;27;20071;-72
2021/07/13 11:26:04;;;;;;;3.33;0.70;;;16.80;59.30;;;;;;5108512;27;20500;-73
2021/07/13 11:28:54;;;;;;;0.98;0.57;;;16.70;55.40;;;;;;5111284;27;20168;-74
2021/07/13 11:31:49;;;;;;;56.33;37.72;;;17.20;62.60;;;;;;5107675;27;20047;-74
2021/07/13 11:34:40;;;;;;;;;;;17.30;63.10;;;;;;5114193;27;20130;-77
2021/07/13 11:37:29;;;;;;;0.90;0.47;;;17.10;59.00;;;;;;5112255;27;19930;-73
2021/07/13 11:40:19;;;;;;;2.42;0.60;;;17.30;60.00;;;;;;5114088;27;20035;-74
2021/07/13 11:43:08;;;;;;;7.32;0.75;;;17.30;60.00;;;;;;5112561;27;20693;-75
2021/07/13 11:46:11;;;;;;;1.83;0.55;;;17.30;60.20;;;;;;5108685;27;20082;-74
2021/07/13 11:49:02;;;;;;;0.65;0.30;;;17.30;60.10;;;;;;5110124;27;20092;-73
2021/07/13 11:51:56;;;;;;;2.25;0.40;;;17.30;58.60;;;;;;5110570;27;20498;-74
2021/07/13 11:54:48;;;;;;;0.40;0.25;;;17.20;58.00;;;;;;5107212;27;20059;-74
2021/07/13 11:57:37;;;;;;;0.50;0.35;;;17.20;58.60;;;;;;5108253;27;20085;-73
2021/07/13 12:00:30;;;;;;;4.00;1.02;;;17.20;57.10;;;;;;5109419;27;20048;-74
2021/07/13 12:03:27;;;;;;;4.28;0.50;;;17.30;58.30;;;;;;5107834;27;20043;-73
2021/07/13 12:06:18;;;;;;;2.22;0.55;;;17.40;58.00;;;;;;5112193;27;20180;-73
2021/07/13 12:09:09;;;;;;;2.63;0.98;;;17.50;57.10;;;;;;5109648;27;20036;-73
2021/07/13 12:12:00;;;;;;;2.08;0.70;;;17.60;57.80;;;;;;5107913;27;20512;-74
2021/07/13 12:14:53;;;;;;;1.95;0.65;;;17.50;56.20;;;;;;5109960;27;20043;-74
2021/07/13 12:17:43;;;;;;;3.35;0.68;;;17.20;55.10;;;;;;5104195;28;20059;-73
2021/07/13 12:20:32;;;;;;;4.30;0.65;;;17.30;54.80;;;;;;5110647;27;20058;-74
2021/07/13 12:23:21;;;;;;;1.27;0.70;;;17.30;57.00;;;;;;5110894;27;20403;-75
2021/07/13 12:26:28;;;;;;;5.00;0.50;;;17.30;58.80;;;;;;5109293;27;20131;-73
2021/07/13 12:29:18;;;;;;;5.13;0.70;;;17.40;52.30;;;;;;5105240;27;20031;-73
2021/07/13 12:32:18;;;;;;;3.03;1.30;;;17.50;53.30;;;;;;5112553;27;20058;-74
2021/07/13 12:35:17;;;;;;;0.60;0.30;;;17.80;52.30;;;;;;5111640;28;20406;-76
2021/07/13 12:38:10;;;;;;;1.63;0.50;;;17.40;36.90;;;;;;5103989;28;20437;-73
2021/07/13 12:40:58;;;;;;;0.68;0.30;;;17.40;50.80;;;;;;5106670;28;20051;-75
2021/07/13 12:43:47;;;;;;;1.45;0.32;;;17.30;40.60;;;;;;5107916;28;20428;-73
2021/07/13 12:46:35;;;;;;;0.50;0.30;;;17.40;45.00;;;;;;5112905;28;20055;-73
2021/07/13 12:49:28;;;;;;;2.05;0.50;;;17.20;39.30;;;;;;5105779;28;20090;-73
2021/07/13 12:52:18;;;;;;;0.63;0.20;;;17.20;41.70;;;;;;5105498;28;20414;-72
2021/07/13 12:55:09;;;;;;;1.48;0.30;;;17.10;41.30;;;;;;5107954;28;20089;-74
2021/07/13 12:58:12;;;;;;;2.63;0.50;;;17.30;47.50;;;;;;5106102;28;20379;-74
2021/07/13 13:01:12;;;;;;;0.30;0.20;;;17.30;46.20;;;;;;5109654;28;20032;-74
2021/07/13 13:04:11;;;;;;;2.13;0.45;;;17.30;45.80;;;;;;5115148;28;20044;-74
2021/07/13 13:06:59;;;;;;;0.55;0.25;;;17.40;43.70;;;;;;5108489;28;20071;-74
2021/07/13 13:09:49;;;;;;;1.10;0.40;;;17.40;40.90;;;;;;5104832;28;20048;-74
2021/07/13 13:12:51;;;;;;;0.50;0.38;;;17.40;37.70;;;;;;5105651;28;20050;-74
2021/07/13 13:15:47;;;;;;;1.02;0.52;;;17.60;42.80;;;;;;5111726;27;20171;-74
2021/07/13 13:18:35;;;;;;;1.98;0.20;;;17.60;41.80;;;;;;5108287;28;20244;-75
2021/07/13 13:21:24;;;;;;;0.30;0.22;;;17.80;37.20;;;;;;5107119;28;20060;-75
2021/07/13 13:24:14;;;;;;;1.55;0.40;;;17.90;39.30;;;;;;5106861;28;20047;-74
2021/07/13 13:27:05;;;;;;;0.68;0.25;;;17.90;40.20;;;;;;5109813;28;20058;-75
2021/07/13 13:29:53;;;;;;;1.17;0.32;;;17.80;33.60;;;;;;5108157;27;20096;-76
2021/07/13 13:32:42;;;;;;;0.73;0.30;;;17.60;33.10;;;;;;5110250;27;20051;-76
2021/07/13 13:35:36;;;;;;;1.10;0.30;;;17.90;35.50;;;;;;5110391;27;20055;-75
2021/07/13 13:38:38;;;;;;;2.92;0.57;;;17.90;34.40;;;;;;5110409;27;20549;-75
2021/07/13 13:41:26;;;;;;;3.63;0.43;;;17.80;28.70;;;;;;5110761;27;20114;-75
2021/07/13 13:44:16;;;;;;;0.40;0.30;;;18.00;32.80;;;;;;5115856;27;20069;-75
2021/07/13 13:47:05;;;;;;;0.50;0.40;;;18.10;30.80;;;;;;5111241;27;20487;-75
2021/07/13 13:49:54;;;;;;;1.05;0.50;;;18.10;27.70;;;;;;5110289;27;20079;-76
2021/07/13 13:52:42;;;;;;;0.50;0.30;;;18.00;24.00;;;;;;5112804;27;20051;-76
2021/07/13 13:55:31;;;;;;;1.88;0.47;;;18.30;26.30;;;;;;5111310;27;20047;-73
2021/07/13 13:58:20;;;;;;;2.85;0.30;;;18.20;27.70;;;;;;5112406;27;20189;-75
2021/07/13 14:01:12;;;;;;;1.35;0.50;;;17.90;26.80;;;;;;5108602;27;20455;-74
2021/07/13 14:04:00;;;;;;;1.23;0.60;;;17.80;28.70;;;;;;5110111;27;20387;-74
2021/07/13 14:06:49;;;;;;;1.52;0.50;;;17.90;24.00;;;;;;5111282;27;20064;-75
2021/07/13 14:09:40;;;;;;;1.35;0.30;;;17.90;24.00;;;;;;5111249;27;20051;-74
2021/07/13 14:12:49;;;;;;;1.48;0.50;;;17.70;23.40;;;;;;5111049;27;20409;-75
2021/07/13 14:15:37;;;;;;;0.88;0.57;;;17.90;25.10;;;;;;5111519;27;20049;-74
2021/07/13 14:18:29;;;;;;;4.20;0.60;;;18.10;27.10;;;;;;5108489;27;20035;-75
2021/07/13 14:21:17;;;;;;;1.65;0.68;;;18.20;26.70;;;;;;5105675;27;20039;-75
2021/07/13 14:24:06;;;;;;;0.95;0.38;;;18.00;21.10;;;;;;5115842;27;20043;-76
2021/07/13 14:26:54;;;;;;;1.20;0.57;;;18.00;20.50;;;;;;5106970;28;20126;-77
2021/07/13 14:29:43;;;;;;;1.50;0.80;;;18.20;23.00;;;;;;5110423;27;20136;-76
2021/07/13 14:32:32;;;;;;;2.22;0.95;;;18.40;20.60;;;;;;5108308;27;20047;-77
2021/07/13 14:35:21;;;;;;;0.40;0.38;;;18.10;23.90;;;;;;5115176;27;20051;-76
2021/07/13 14:38:10;;;;;;;1.17;0.65;;;18.40;19.50;;;;;;5110638;27;20051;-75
2021/07/13 14:40:58;;;;;;;0.90;0.50;;;18.90;22.20;;;;;;5112883;27;20510;-76
2021/07/13 14:43:47;;;;;;;1.02;0.52;;;19.00;17.70;;;;;;5109765;27;20516;-76
2021/07/13 14:46:35;;;;;;;1.63;0.50;;;19.00;16.20;;;;;;5107756;27;20044;-76